Time;durP1;ratioP1;P1;durP2;ratioP2;P2;SDS_P1;SDS_P2;PMS_P1;PMS_P2;Temp;Humidity;BMP_temperature;BMP_pressure;BME280_temperature;BME280_humidity;BME280_pressure;Samples;Min_cycle;Max_cycle;Signal;HPM_P1;HPM_P2
2023/03/07 00:00:50;;;;;;;12.33;9.10;;;9.10;99.90;;;;;;5073920;28;20397;-82
2023/03/07 00:03:17;;;;;;;13.07;10.20;;;9.00;99.90;;;;;;5073800;28;20614;-86
2023/03/07 00:05:43;;;;;;;12.82;8.55;;;9.00;99.90;;;;;;5072797;28;20169;-83
2023/03/07 00:08:09;;;;;;;18.35;11.90;;;9.00;99.90;;;;;;5073828;28;20792;-86
2023/03/07 00:10:35;;;;;;;16.77;10.98;;;8.90;99.90;;;;;;5072551;28;20173;-86
2023/03/07 00:13:02;;;;;;;25.70;13.07;;;9.00;99.90;;;;;;5073804;28;20243;-85
2023/03/07 00:15:29;;;;;;;14.65;10.07;;;9.00;99.90;;;;;;5072525;28;20441;-82
2023/03/07 00:17:55;;;;;;;12.60;8.10;;;9.00;99.90;;;;;;5074148;28;20228;-83
2023/03/07 00:20:21;;;;;;;10.27;8.00;;;9.10;99.90;;;;;;5072455;28;20185;-85
2023/03/07 00:22:46;;;;;;;10.03;7.23;;;9.10;99.90;;;;;;5072619;28;20438;-83
2023/03/07 00:25:13;;;;;;;10.37;6.90;;;9.10;99.90;;;;;;5073681;28;20823;-83
2023/03/07 00:27:39;;;;;;;11.90;7.53;;;9.10;99.90;;;;;;5074470;28;20203;-82
2023/03/07 00:30:05;;;;;;;19.90;9.50;;;9.10;99.90;;;;;;5073448;28;20177;-86
2023/03/07 00:32:31;;;;;;;56.42;22.88;;;9.10;99.90;;;;;;5073860;28;20189;-87
2023/03/07 00:34:58;;;;;;;63.27;27.87;;;9.10;99.90;;;;;;5072350;28;20250;-83
2023/03/07 00:37:24;;;;;;;26.00;13.50;;;9.00;99.90;;;;;;5072154;28;20520;-83
2023/03/07 00:39:50;;;;;;;10.60;7.20;;;9.00;99.90;;;;;;5073542;28;20273;-85
2023/03/07 00:42:16;;;;;;;11.45;7.07;;;9.10;99.90;;;;;;5072386;28;20272;-83
2023/03/07 00:44:41;;;;;;;9.77;7.10;;;9.10;99.90;;;;;;5073359;28;20300;-82
2023/03/07 00:47:08;;;;;;;8.67;6.53;;;9.10;99.90;;;;;;5072257;28;20197;-83
2023/03/07 00:49:34;;;;;;;10.30;6.95;;;9.00;99.90;;;;;;5075299;28;20725;-85
2023/03/07 00:52:00;;;;;;;11.40;7.60;;;9.00;99.90;;;;;;5076493;28;20227;-86
2023/03/07 00:54:25;;;;;;;12.10;8.93;;;9.00;99.90;;;;;;5076272;28;20180;-86
2023/03/07 00:56:51;;;;;;;14.90;10.10;;;8.90;99.90;;;;;;5078252;28;20493;-86
2023/03/07 00:59:17;;;;;;;17.90;11.37;;;8.90;99.90;;;;;;5077317;28;20185;-82
2023/03/07 01:01:43;;;;;;;18.20;11.90;;;8.90;99.90;;;;;;5077105;28;20409;-86
2023/03/07 01:04:08;;;;;;;21.23;13.03;;;8.90;99.90;;;;;;5077215;28;20558;-86
2023/03/07 01:06:35;;;;;;;20.63;12.93;;;8.90;99.90;;;;;;5075865;28;20174;-83
2023/03/07 01:09:08;;;;;;;18.80;12.80;;;8.90;99.90;;;;;;5077065;28;20609;-83
2023/03/07 01:11:35;;;;;;;31.65;19.08;;;8.90;99.90;;;;;;5077317;28;20172;-83
2023/03/07 01:14:03;;;;;;;22.65;15.65;;;8.80;99.90;;;;;;5076860;28;20225;-83
2023/03/07 01:16:34;;;;;;;21.13;13.63;;;8.80;99.90;;;;;;5077054;28;20173;-86
2023/03/07 01:19:04;;;;;;;27.63;16.25;;;8.80;99.90;;;;;;5077080;28;20219;-85
2023/03/07 01:21:33;;;;;;;24.88;16.48;;;8.80;99.90;;;;;;5076854;28;20178;-82
2023/03/07 01:23:59;;;;;;;33.03;19.52;;;8.80;99.90;;;;;;5076394;28;20221;-86
2023/03/07 01:26:27;;;;;;;23.50;16.03;;;8.70;99.90;;;;;;5075574;28;20199;-83
2023/03/07 01:28:55;;;;;;;25.48;15.70;;;8.60;99.90;;;;;;5076712;28;20200;-83
2023/03/07 01:31:22;;;;;;;27.73;15.75;;;8.60;99.90;;;;;;5075459;28;20653;-82
2023/03/07 01:33:50;;;;;;;22.85;14.65;;;8.60;99.90;;;;;;5076577;28;20574;-83
2023/03/07 01:36:18;;;;;;;22.25;14.88;;;8.60;99.90;;;;;;5076880;28;20184;-87
2023/03/07 01:38:46;;;;;;;26.08;14.07;;;8.60;99.90;;;;;;5075193;28;20198;-83
2023/03/07 01:41:11;;;;;;;25.38;14.50;;;8.50;99.90;;;;;;5075319;28;20184;-86
2023/03/07 01:43:38;;;;;;;25.80;15.10;;;8.50;99.90;;;;;;5076311;28;20685;-83
2023/03/07 01:46:16;;;;;;;28.52;17.75;;;8.50;99.90;;;;;;5076470;28;20418;-83
2023/03/07 01:48:50;;;;;;;30.98;17.85;;;8.50;99.90;;;;;;5074987;28;20687;-86
2023/03/07 01:51:18;;;;;;;35.03;19.05;;;8.50;99.90;;;;;;5076373;28;20637;-85
2023/03/07 01:53:44;;;;;;;30.30;18.88;;;8.50;99.90;;;;;;5074891;28;20201;-83
2023/03/07 01:56:10;;;;;;;28.85;16.83;;;8.40;99.90;;;;;;5074990;28;20177;-85
2023/03/07 01:58:38;;;;;;;27.85;18.50;;;8.40;99.90;;;;;;5074774;28;20204;-86
2023/03/07 02:01:08;;;;;;;27.60;14.90;;;8.40;99.90;;;;;;5075275;28;20181;-83
2023/03/07 02:03:47;;;;;;;29.23;14.20;;;8.40;99.90;;;;;;5075948;28;20300;-82
2023/03/07 02:06:13;;;;;;;24.65;14.82;;;8.30;99.90;;;;;;5075676;28;20177;-86
2023/03/07 02:08:40;;;;;;;25.98;16.23;;;8.30;99.90;;;;;;5074682;28;20207;-82
2023/03/07 02:11:07;;;;;;;25.10;16.50;;;8.20;99.90;;;;;;5076050;28;20180;-83
2023/03/07 02:13:34;;;;;;;25.65;15.73;;;8.20;99.90;;;;;;5074568;28;20241;-86
2023/03/07 02:16:01;;;;;;;24.75;15.40;;;8.10;99.90;;;;;;5074638;28;20579;-83
2023/03/07 02:18:31;;;;;;;21.13;14.48;;;8.10;99.90;;;;;;5075818;28;20270;-84
2023/03/07 02:21:14;;;;;;;25.02;16.10;;;8.20;99.90;;;;;;5075902;28;20169;-83
2023/03/07 02:23:57;;;;;;;24.77;15.18;;;8.20;99.90;;;;;;5074370;28;20221;-86
2023/03/07 02:26:37;;;;;;;26.70;16.10;;;8.10;99.90;;;;;;5075853;28;20174;-82
2023/03/07 02:29:04;;;;;;;27.60;19.35;;;8.10;99.90;;;;;;5074648;28;20565;-86
2023/03/07 02:31:30;;;;;;;30.98;16.85;;;8.10;99.90;;;;;;5074403;28;20203;-82
2023/03/07 02:33:55;;;;;;;23.13;14.30;;;8.00;99.90;;;;;;5075646;28;20205;-83
2023/03/07 02:36:25;;;;;;;23.50;14.50;;;8.10;99.90;;;;;;5075796;28;20181;-88
2023/03/07 02:38:53;;;;;;;24.42;14.73;;;8.00;99.90;;;;;;5075995;28;20197;-83
2023/03/07 02:41:24;;;;;;;26.95;14.85;;;7.90;99.90;;;;;;5075442;28;20177;-83
2023/03/07 02:43:50;;;;;;;24.83;14.95;;;7.90;99.90;;;;;;5073981;28;20213;-83
2023/03/07 02:46:16;;;;;;;27.93;14.43;;;7.90;99.90;;;;;;5074081;28;20576;-83
2023/03/07 02:48:42;;;;;;;30.77;16.45;;;7.90;99.90;;;;;;5075193;28;20193;-82
2023/03/07 02:51:07;;;;;;;25.00;14.80;;;7.80;99.90;;;;;;5075213;28;20242;-83
2023/03/07 02:53:33;;;;;;;30.63;15.73;;;7.70;99.90;;;;;;5075442;28;20201;-83
2023/03/07 02:55:59;;;;;;;27.20;15.60;;;7.60;99.90;;;;;;5075154;28;20401;-86
2023/03/07 02:58:25;;;;;;;24.97;15.30;;;7.50;99.90;;;;;;5073758;28;20201;-86
2023/03/07 03:00:51;;;;;;;26.00;15.57;;;7.50;99.90;;;;;;5074957;28;20477;-83
2023/03/07 03:03:17;;;;;;;21.97;13.60;;;7.50;99.90;;;;;;5073564;28;20491;-82
2023/03/07 03:05:43;;;;;;;23.88;14.70;;;7.50;99.90;;;;;;5073546;28;20177;-86
2023/03/07 03:08:08;;;;;;;28.20;15.13;;;7.40;99.90;;;;;;5074809;28;20212;-86
2023/03/07 03:10:34;;;;;;;24.03;13.90;;;7.50;99.90;;;;;;5074878;28;20402;-83
2023/03/07 03:12:59;;;;;;;23.73;15.57;;;7.50;99.90;;;;;;5073218;28;20236;-82
2023/03/07 03:15:25;;;;;;;25.53;15.07;;;7.50;99.90;;;;;;5074876;28;20177;-82
2023/03/07 03:17:53;;;;;;;24.97;15.63;;;7.40;99.90;;;;;;5073208;28;20197;-86
2023/03/07 03:20:18;;;;;;;20.70;13.20;;;7.40;99.90;;;;;;5074594;28;20177;-82
2023/03/07 03:22:44;;;;;;;23.80;14.37;;;7.40;99.90;;;;;;5074620;28;20714;-82
2023/03/07 03:25:13;;;;;;;25.43;15.23;;;7.30;99.90;;;;;;5074552;28;20208;-85
2023/03/07 03:27:39;;;;;;;25.52;13.98;;;7.40;99.90;;;;;;5074717;28;20452;-83
2023/03/07 03:30:08;;;;;;;24.27;14.90;;;7.40;99.90;;;;;;5073799;28;20188;-83
2023/03/07 03:32:36;;;;;;;25.90;15.15;;;7.50;99.90;;;;;;5074651;28;20208;-86
2023/03/07 03:35:02;;;;;;;23.20;13.90;;;7.50;99.90;;;;;;5074393;28;20259;-82
2023/03/07 03:37:28;;;;;;;25.47;13.97;;;7.40;99.90;;;;;;5073254;28;20196;-87
2023/03/07 03:39:53;;;;;;;24.33;14.17;;;7.40;99.90;;;;;;5073549;28;20181;-85
2023/03/07 03:42:19;;;;;;;24.43;14.80;;;7.40;99.90;;;;;;5072990;28;20456;-82
2023/03/07 03:44:45;;;;;;;26.37;16.50;;;7.40;99.90;;;;;;5072763;28;20244;-84
2023/03/07 03:47:11;;;;;;;25.03;15.70;;;7.40;99.90;;;;;;5074398;28;20441;-85
2023/03/07 03:49:36;;;;;;;24.55;15.30;;;7.30;99.90;;;;;;5072869;28;20696;-82
2023/03/07 03:52:03;;;;;;;26.47;15.20;;;7.20;99.90;;;;;;5072961;28;20205;-87
2023/03/07 03:54:29;;;;;;;26.95;15.45;;;7.20;99.90;;;;;;5074061;28;20177;-82
2023/03/07 03:56:55;;;;;;;25.85;14.70;;;7.20;99.90;;;;;;5072878;28;20201;-86
2023/03/07 03:59:21;;;;;;;25.17;15.07;;;7.20;99.90;;;;;;5072768;28;20554;-87
2023/03/07 04:01:48;;;;;;;22.27;14.50;;;7.10;99.90;;;;;;5074119;28;20174;-87
2023/03/07 04:04:14;;;;;;;22.92;14.55;;;7.10;99.90;;;;;;5072606;28;20217;-83
2023/03/07 04:06:41;;;;;;;28.70;15.27;;;7.00;99.90;;;;;;5072513;28;20188;-82
2023/03/07 04:09:08;;;;;;;22.80;13.60;;;7.00;99.90;;;;;;5074012;28;20907;-86
2023/03/07 04:11:34;;;;;;;29.00;14.75;;;7.00;99.90;;;;;;5073700;28;20184;-86
2023/03/07 04:14:00;;;;;;;23.40;15.00;;;7.00;99.90;;;;;;5073777;28;20232;-87
2023/03/07 04:16:26;;;;;;;27.92;16.50;;;7.10;99.90;;;;;;5072401;28;20185;-82
2023/03/07 04:18:52;;;;;;;27.23;14.93;;;7.10;99.90;;;;;;5073674;28;20193;-82
2023/03/07 04:21:19;;;;;;;26.00;15.47;;;7.20;99.90;;;;;;5074614;28;20173;-82
2023/03/07 04:23:45;;;;;;;28.50;15.82;;;7.20;99.90;;;;;;5073143;28;20896;-86
2023/03/07 04:26:11;;;;;;;29.23;16.20;;;7.30;99.90;;;;;;5073809;28;20177;-83
2023/03/07 04:28:49;;;;;;;25.98;16.65;;;7.40;99.90;;;;;;5073518;28;20193;-85
2023/03/07 04:31:23;;;;;;;29.73;16.52;;;7.40;99.90;;;;;;5072387;28;20249;-85
2023/03/07 04:33:50;;;;;;;26.52;16.48;;;7.50;99.90;;;;;;5073637;28;20234;-83
2023/03/07 04:36:16;;;;;;;29.10;17.63;;;7.70;99.90;;;;;;5073713;28;20501;-84
2023/03/07 04:38:43;;;;;;;30.20;18.17;;;7.60;99.90;;;;;;5073463;28;20189;-84
2023/03/07 04:41:14;;;;;;;27.55;15.90;;;7.60;99.90;;;;;;5072305;28;20177;-85
2023/03/07 04:43:40;;;;;;;26.88;17.25;;;7.70;99.90;;;;;;5073423;28;20685;-83
2023/03/07 04:46:07;;;;;;;37.87;19.60;;;7.60;99.90;;;;;;5073516;28;20196;-86
2023/03/07 04:48:33;;;;;;;28.35;17.35;;;7.70;99.90;;;;;;5072142;28;20993;-86
2023/03/07 04:50:59;;;;;;;28.05;16.08;;;7.80;99.90;;;;;;5072229;28;20200;-86
2023/03/07 04:53:25;;;;;;;46.30;28.33;;;7.70;99.90;;;;;;5073396;28;20200;-83
2023/03/07 04:55:59;;;;;;;30.02;20.50;;;7.70;99.90;;;;;;5073308;28;20510;-86
2023/03/07 04:58:26;;;;;;;29.80;17.70;;;7.60;99.90;;;;;;5072084;28;20228;-83
2023/03/07 05:00:52;;;;;;;29.23;17.60;;;7.50;99.90;;;;;;5071805;28;20177;-83
2023/03/07 05:03:18;;;;;;;28.07;17.23;;;7.50;99.90;;;;;;5071806;28;20204;-83
2023/03/07 05:05:43;;;;;;;33.00;18.17;;;7.50;99.90;;;;;;5072225;28;20596;-86
2023/03/07 05:08:09;;;;;;;31.10;19.70;;;7.60;99.90;;;;;;5073064;28;20284;-83
2023/03/07 05:10:36;;;;;;;32.30;19.40;;;7.50;99.90;;;;;;5073389;28;20173;-86
2023/03/07 05:13:03;;;;;;;31.80;18.88;;;7.50;99.90;;;;;;5071837;28;20237;-86
2023/03/07 05:15:29;;;;;;;27.65;18.10;;;7.50;99.90;;;;;;5071869;28;20247;-86
2023/03/07 05:17:54;;;;;;;28.73;19.40;;;7.50;99.90;;;;;;5072084;28;20205;-83
2023/03/07 05:20:22;;;;;;;31.43;19.80;;;7.50;99.90;;;;;;5073121;28;20170;-86
2023/03/07 05:22:48;;;;;;;30.20;18.52;;;7.60;99.90;;;;;;5073341;28;20280;-82
2023/03/07 05:25:14;;;;;;;25.70;17.00;;;7.70;99.90;;;;;;5071755;28;20220;-82
2023/03/07 05:27:41;;;;;;;27.53;16.93;;;7.60;99.90;;;;;;5073098;28;20193;-82
2023/03/07 05:30:08;;;;;;;27.38;17.50;;;7.60;99.90;;;;;;5069337;28;20189;-87
2023/03/07 05:32:33;;;;;;;32.53;17.30;;;7.50;99.90;;;;;;5069318;28;20189;-87
2023/03/07 05:34:59;;;;;;;28.30;18.57;;;7.60;99.90;;;;;;5070536;28;20185;-87
2023/03/07 05:37:25;;;;;;;25.03;15.97;;;7.60;99.90;;;;;;5073312;28;20455;-83
2023/03/07 05:39:51;;;;;;;29.13;18.38;;;7.70;99.90;;;;;;5072533;28;20699;-87
2023/03/07 05:42:17;;;;;;;27.30;15.57;;;7.60;99.90;;;;;;5082758;28;20232;-81
2023/03/07 05:44:42;;;;;;;29.10;15.87;;;7.50;99.90;;;;;;5091589;28;20468;-85
2023/03/07 05:47:08;;;;;;;24.23;14.93;;;7.40;99.90;;;;;;5094043;28;20214;-82
2023/03/07 05:49:34;;;;;;;29.17;17.33;;;7.30;99.90;;;;;;5083746;28;20189;-82
2023/03/07 05:52:00;;;;;;;32.37;18.23;;;7.10;99.90;;;;;;5074214;28;20208;-82
2023/03/07 05:54:26;;;;;;;31.43;18.97;;;7.10;99.90;;;;;;5082258;28;20417;-80
2023/03/07 05:56:51;;;;;;;32.60;17.30;;;7.00;99.90;;;;;;5087683;28;20260;-81
2023/03/07 05:59:17;;;;;;;37.40;20.53;;;7.10;99.90;;;;;;5091772;28;20504;-86
2023/03/07 06:01:42;;;;;;;34.63;20.70;;;7.20;99.90;;;;;;5083530;28;20557;-90
2023/03/07 06:04:08;;;;;;;36.53;19.00;;;7.10;99.90;;;;;;5090626;28;20215;-89
2023/03/07 06:06:34;;;;;;;36.10;19.60;;;7.20;99.90;;;;;;5077536;28;20208;-80
2023/03/07 06:09:00;;;;;;;30.07;17.20;;;7.30;99.90;;;;;;5085904;28;20189;-79
2023/03/07 06:11:26;;;;;;;30.27;16.93;;;7.20;99.90;;;;;;5084835;28;20424;-82
2023/03/07 06:13:51;;;;;;;27.70;16.27;;;7.10;99.90;;;;;;5085598;28;20564;-88
2023/03/07 06:16:17;;;;;;;27.07;18.00;;;7.10;99.90;;;;;;5086559;28;20185;-81
2023/03/07 06:18:43;;;;;;;32.60;17.50;;;7.10;99.90;;;;;;5080673;28;20292;-81
2023/03/07 06:21:11;;;;;;;31.33;16.33;;;7.00;99.90;;;;;;5082680;28;20730;-81
2023/03/07 06:23:37;;;;;;;34.67;17.70;;;7.10;99.90;;;;;;5087627;28;21033;-81
2023/03/07 06:26:04;;;;;;;30.40;15.73;;;7.10;99.90;;;;;;5094888;28;20180;-87
2023/03/07 06:28:30;;;;;;;26.40;16.35;;;7.10;99.90;;;;;;5090356;28;20204;-81
2023/03/07 06:30:55;;;;;;;32.90;20.73;;;7.10;99.90;;;;;;5092405;28;20180;-81
2023/03/07 06:33:21;;;;;;;34.07;19.97;;;7.10;99.90;;;;;;5093553;28;20208;-82
2023/03/07 06:35:47;;;;;;;26.67;17.40;;;7.10;99.90;;;;;;5088536;28;20585;-87
2023/03/07 06:38:15;;;;;;;31.77;19.40;;;7.10;99.90;;;;;;5082138;28;20212;-82
2023/03/07 06:40:40;;;;;;;32.20;18.60;;;7.10;99.90;;;;;;5086444;28;20425;-81
2023/03/07 06:43:06;;;;;;;29.80;17.50;;;7.20;99.90;;;;;;5090843;28;20257;-82
2023/03/07 06:45:32;;;;;;;28.20;16.83;;;7.20;99.90;;;;;;5091118;28;20432;-81
2023/03/07 06:47:58;;;;;;;28.50;17.37;;;7.20;99.90;;;;;;5083677;28;20950;-81
2023/03/07 06:50:24;;;;;;;24.33;15.63;;;7.30;99.90;;;;;;5089999;28;20810;-81
2023/03/07 06:52:50;;;;;;;31.95;17.88;;;7.30;99.90;;;;;;5091637;28;20471;-87
2023/03/07 06:55:18;;;;;;;29.80;16.30;;;7.30;99.90;;;;;;5087871;28;20184;-86
2023/03/07 06:57:44;;;;;;;30.33;17.27;;;7.30;99.90;;;;;;5076890;28;21003;-87
2023/03/07 07:00:11;;;;;;;28.75;15.32;;;7.30;99.90;;;;;;5062703;28;20258;-81
2023/03/07 07:02:37;;;;;;;23.20;14.20;;;7.30;99.90;;;;;;5080702;28;20649;-81
2023/03/07 07:05:03;;;;;;;25.20;15.43;;;7.20;99.90;;;;;;5072721;28;20219;-86
2023/03/07 07:07:29;;;;;;;27.48;16.73;;;7.10;99.90;;;;;;5085996;28;20212;-81
2023/03/07 07:09:55;;;;;;;25.07;15.73;;;7.10;99.90;;;;;;5084886;28;20185;-81
2023/03/07 07:12:21;;;;;;;29.23;15.47;;;7.10;99.90;;;;;;5086115;28;20437;-81
2023/03/07 07:14:46;;;;;;;28.03;17.33;;;7.10;99.90;;;;;;5092060;28;20691;-80
2023/03/07 07:17:12;;;;;;;25.83;13.93;;;7.10;99.90;;;;;;5090929;28;20708;-87
2023/03/07 07:19:38;;;;;;;29.05;14.73;;;7.10;99.90;;;;;;5090646;28;20384;-81
2023/03/07 07:22:05;;;;;;;23.20;13.57;;;7.10;99.90;;;;;;5087151;28;20283;-81
2023/03/07 07:24:30;;;;;;;33.53;16.75;;;7.10;99.90;;;;;;5082939;28;20309;-86
2023/03/07 07:26:56;;;;;;;43.87;23.07;;;7.10;99.90;;;;;;5086866;28;20200;-87
2023/03/07 07:29:22;;;;;;;19.63;14.70;;;7.10;99.90;;;;;;5083071;28;20676;-81
2023/03/07 07:31:51;;;;;;;25.45;15.23;;;7.10;99.90;;;;;;5075651;28;20210;-81
2023/03/07 07:34:16;;;;;;;25.02;14.77;;;7.10;99.90;;;;;;5088396;28;20180;-80
2023/03/07 07:36:42;;;;;;;23.63;14.70;;;7.30;99.90;;;;;;5094852;28;20191;-81
2023/03/07 07:39:09;;;;;;;23.57;14.80;;;7.50;99.90;;;;;;5092887;28;20185;-81
2023/03/07 07:41:35;;;;;;;24.30;16.08;;;7.80;99.90;;;;;;5078846;28;20185;-89
2023/03/07 07:44:01;;;;;;;31.33;19.42;;;8.00;99.90;;;;;;5084602;28;20743;-87
2023/03/07 07:46:27;;;;;;;36.63;19.10;;;8.10;99.90;;;;;;5071606;28;20184;-88
2023/03/07 07:48:53;;;;;;;25.77;16.67;;;8.30;99.90;;;;;;5062026;28;21767;-81
2023/03/07 07:51:19;;;;;;;23.80;16.35;;;8.40;99.90;;;;;;5067089;28;20827;-82
2023/03/07 07:53:45;;;;;;;24.20;15.00;;;8.60;99.90;;;;;;5060562;28;20747;-88
2023/03/07 07:56:10;;;;;;;23.30;15.97;;;8.70;99.90;;;;;;5068197;28;20721;-82
2023/03/07 07:58:36;;;;;;;25.23;15.57;;;8.80;99.90;;;;;;5057456;28;20416;-87
2023/03/07 08:01:15;;;;;;;23.83;13.00;;;8.90;99.90;;;;;;5062322;28;20481;-87
2023/03/07 08:03:41;;;;;;;18.38;11.50;;;8.90;99.90;;;;;;5070222;28;20516;-81
2023/03/07 08:06:07;;;;;;;21.13;14.33;;;8.90;99.90;;;;;;5064169;28;20542;-89
2023/03/07 08:08:32;;;;;;;18.83;12.87;;;9.00;99.90;;;;;;5063589;28;20209;-80
2023/03/07 08:10:58;;;;;;;20.47;13.20;;;9.20;99.90;;;;;;5072208;28;20569;-88
2023/03/07 08:13:24;;;;;;;19.63;13.97;;;9.30;99.90;;;;;;5062829;28;20240;-81
2023/03/07 08:15:49;;;;;;;19.73;13.97;;;9.50;99.90;;;;;;5068401;28;20713;-81
2023/03/07 08:18:15;;;;;;;27.43;14.37;;;9.70;99.90;;;;;;5062742;28;20220;-81
2023/03/07 08:20:41;;;;;;;20.23;12.23;;;9.90;99.90;;;;;;5060120;28;20193;-82
2023/03/07 08:23:07;;;;;;;18.17;11.97;;;10.10;99.90;;;;;;5057828;28;20212;-82
2023/03/07 08:25:33;;;;;;;18.63;11.57;;;10.30;99.90;;;;;;5060097;28;20539;-87
2023/03/07 08:28:01;;;;;;;19.00;12.00;;;10.60;99.90;;;;;;5060190;28;20212;-87
2023/03/07 08:30:28;;;;;;;17.65;12.20;;;10.80;99.90;;;;;;5065620;28;20197;-82
2023/03/07 08:32:55;;;;;;;20.23;14.05;;;11.10;99.90;;;;;;5062394;28;20573;-87
2023/03/07 08:35:22;;;;;;;23.42;14.50;;;11.10;99.90;;;;;;5063456;28;20187;-87
2023/03/07 08:37:52;;;;;;;24.05;15.15;;;11.10;99.90;;;;;;5082668;28;20200;-82
2023/03/07 08:40:17;;;;;;;22.80;14.38;;;11.10;99.90;;;;;;5080407;28;20854;-81
2023/03/07 08:42:43;;;;;;;21.20;13.13;;;11.00;99.90;;;;;;5080773;28;20209;-87
2023/03/07 08:45:09;;;;;;;22.50;15.00;;;11.00;99.90;;;;;;5059805;28;20212;-87
2023/03/07 08:47:36;;;;;;;26.13;14.90;;;10.90;99.90;;;;;;5062759;28;20314;-81
2023/03/07 08:50:03;;;;;;;21.10;13.68;;;10.90;99.90;;;;;;5065271;28;20808;-89
2023/03/07 08:52:29;;;;;;;26.27;14.63;;;10.90;99.90;;;;;;5084998;28;20217;-81
2023/03/07 08:54:54;;;;;;;22.67;14.17;;;10.90;99.90;;;;;;5084040;28;20649;-85
2023/03/07 08:57:20;;;;;;;21.77;14.20;;;10.90;99.90;;;;;;5089899;28;20704;-81
2023/03/07 08:59:46;;;;;;;22.37;15.27;;;10.90;99.90;;;;;;5091327;28;20181;-81
2023/03/07 09:02:11;;;;;;;22.60;15.17;;;10.90;99.90;;;;;;5088588;28;20204;-89
2023/03/07 09:04:37;;;;;;;23.30;15.57;;;10.80;99.90;;;;;;5087200;28;20514;-88
2023/03/07 09:07:03;;;;;;;23.10;16.07;;;10.80;99.90;;;;;;5085382;28;20637;-89
2023/03/07 09:09:30;;;;;;;26.13;17.83;;;10.80;99.90;;;;;;5089457;28;20448;-81
2023/03/07 09:11:56;;;;;;;25.92;16.90;;;10.50;99.90;;;;;;5089554;28;20246;-88
2023/03/07 09:14:22;;;;;;;19.08;13.25;;;10.30;99.90;;;;;;5089959;28;20227;-88
2023/03/07 09:16:48;;;;;;;19.27;13.10;;;10.40;99.90;;;;;;5082471;28;20230;-89
2023/03/07 09:19:14;;;;;;;23.53;16.33;;;10.40;99.90;;;;;;5089100;28;20177;-82
2023/03/07 09:21:39;;;;;;;22.20;12.70;;;10.30;99.90;;;;;;5083778;28;20226;-82
2023/03/07 09:24:05;;;;;;;19.57;13.23;;;10.40;99.90;;;;;;5086042;28;20216;-87
2023/03/07 09:26:31;;;;;;;25.27;15.32;;;10.40;99.90;;;;;;5091960;28;20268;-82
2023/03/07 09:28:57;;;;;;;16.20;10.70;;;10.40;99.90;;;;;;5094698;28;20627;-86
2023/03/07 09:31:23;;;;;;;16.60;11.20;;;10.20;99.90;;;;;;5092377;28;20233;-88
2023/03/07 09:33:48;;;;;;;13.40;10.63;;;10.00;99.90;;;;;;5085882;28;20303;-82
2023/03/07 09:36:16;;;;;;;18.10;14.17;;;9.90;99.90;;;;;;5087416;28;20489;-88
2023/03/07 09:38:42;;;;;;;18.77;12.63;;;9.80;99.90;;;;;;5086353;28;20249;-82
2023/03/07 09:41:32;;;;;;;18.60;12.20;;;9.80;99.90;;;;;;5088711;28;20227;-83
2023/03/07 09:44:04;;;;;;;17.85;12.73;;;9.80;99.90;;;;;;5087452;28;20217;-88
2023/03/07 09:46:40;;;;;;;21.75;13.25;;;9.80;99.90;;;;;;5091355;28;20192;-88
2023/03/07 09:49:24;;;;;;;40.30;23.75;;;9.70;99.90;;;;;;5089164;28;20737;-82
2023/03/07 09:51:56;;;;;;;24.05;13.90;;;9.70;99.90;;;;;;5088643;28;20237;-85
2023/03/07 09:54:27;;;;;;;19.40;11.45;;;9.70;99.90;;;;;;5093951;28;20231;-82
2023/03/07 09:57:02;;;;;;;16.77;10.50;;;9.70;99.90;;;;;;5094020;28;20181;-82
2023/03/07 09:59:33;;;;;;;16.25;10.98;;;9.80;99.90;;;;;;5085773;28;20173;-82
2023/03/07 10:02:15;;;;;;;17.55;12.45;;;9.80;99.90;;;;;;5089926;28;20691;-82
2023/03/07 10:04:45;;;;;;;19.40;11.00;;;9.90;99.90;;;;;;5102890;28;20715;-87
2023/03/07 10:07:14;;;;;;;15.77;10.90;;;9.90;99.90;;;;;;5081108;28;20225;-82
2023/03/07 10:09:39;;;;;;;14.73;10.80;;;9.70;99.90;;;;;;5085621;28;20239;-82
2023/03/07 10:12:44;;;;;;;14.70;7.77;;;9.60;99.90;;;;;;5087493;28;20669;-82
2023/03/07 10:15:41;;;;;;;16.77;10.63;;;9.50;99.90;;;;;;5086491;28;20279;-87
2023/03/07 10:18:25;;;;;;;16.70;10.55;;;9.60;99.90;;;;;;5072213;28;20193;-82
2023/03/07 10:21:24;;;;;;;14.45;9.40;;;10.00;99.90;;;;;;5086459;28;20467;-88
2023/03/07 10:24:04;;;;;;;14.55;9.90;;;10.30;99.90;;;;;;5084071;28;20224;-83
2023/03/07 10:26:40;;;;;;;16.10;9.32;;;10.50;99.90;;;;;;5090187;28;20534;-81
2023/03/07 10:29:14;;;;;;;13.23;8.82;;;10.50;99.90;;;;;;5081773;28;20237;-88
2023/03/07 10:31:44;;;;;;;14.90;9.35;;;10.30;99.90;;;;;;5091527;28;20190;-88
2023/03/07 10:34:19;;;;;;;12.77;9.00;;;10.10;99.90;;;;;;5095091;28;20628;-87
2023/03/07 10:36:47;;;;;;;15.52;10.07;;;10.00;99.90;;;;;;5090133;28;20191;-83
2023/03/07 10:39:30;;;;;;;14.95;10.05;;;10.10;99.90;;;;;;5090486;28;20564;-81
2023/03/07 10:41:56;;;;;;;18.40;11.18;;;10.10;99.90;;;;;;5088683;28;20727;-81
2023/03/07 10:44:22;;;;;;;16.73;10.77;;;10.10;99.90;;;;;;5081341;28;20212;-85
2023/03/07 10:46:56;;;;;;;14.50;10.23;;;10.20;99.90;;;;;;5084831;28;20252;-82
2023/03/07 10:49:45;;;;;;;13.95;10.07;;;10.20;99.90;;;;;;5088501;28;20184;-82
2023/03/07 10:52:35;;;;;;;15.10;10.02;;;10.10;99.90;;;;;;5082001;28;20202;-82
2023/03/07 10:55:36;;;;;;;16.08;10.50;;;10.20;99.90;;;;;;5083590;28;20241;-86
2023/03/07 10:58:26;;;;;;;18.70;11.50;;;10.20;99.90;;;;;;5084578;28;20208;-86
2023/03/07 11:01:09;;;;;;;16.40;10.40;;;10.20;99.90;;;;;;5089156;28;20176;-82
2023/03/07 11:04:06;;;;;;;14.77;9.13;;;10.20;99.90;;;;;;5088034;28;20291;-85
2023/03/07 11:06:52;;;;;;;14.30;10.13;;;10.20;99.90;;;;;;5085767;28;20188;-86
2023/03/07 11:09:26;;;;;;;12.75;9.27;;;10.20;99.90;;;;;;5087875;28;20677;-83
2023/03/07 11:11:57;;;;;;;17.30;11.38;;;10.20;99.90;;;;;;5081868;28;20582;-86
2023/03/07 11:14:24;;;;;;;15.65;10.50;;;10.20;99.90;;;;;;5089929;28;20328;-85
2023/03/07 11:17:01;;;;;;;15.52;9.95;;;10.10;99.90;;;;;;5090697;28;20675;-85
2023/03/07 11:19:32;;;;;;;15.95;10.13;;;10.20;99.90;;;;;;5087086;28;20602;-86
2023/03/07 11:22:01;;;;;;;18.58;11.30;;;10.20;99.90;;;;;;5072290;28;20197;-83
2023/03/07 11:24:29;;;;;;;11.75;9.30;;;10.20;99.90;;;;;;5083132;28;20213;-86
2023/03/07 11:26:59;;;;;;;18.30;11.20;;;10.30;99.90;;;;;;5087044;28;20261;-82
2023/03/07 11:29:27;;;;;;;13.95;9.95;;;10.30;99.90;;;;;;5090947;28;20183;-86
2023/03/07 11:31:59;;;;;;;13.63;10.50;;;10.30;99.90;;;;;;5091129;28;20185;-86
2023/03/07 11:34:55;;;;;;;16.67;10.52;;;10.40;99.90;;;;;;5070144;28;20181;-86
2023/03/07 11:37:27;;;;;;;15.90;10.85;;;10.30;99.90;;;;;;5079057;28;20215;-85
2023/03/07 11:40:12;;;;;;;14.77;9.75;;;10.30;99.90;;;;;;5097943;28;20176;-85
2023/03/07 11:42:50;;;;;;;19.95;11.77;;;10.40;99.90;;;;;;5081311;28;20816;-86
2023/03/07 11:45:24;;;;;;;15.15;10.52;;;10.50;99.90;;;;;;5089085;28;20652;-81
2023/03/07 11:47:59;;;;;;;16.00;10.98;;;10.70;99.90;;;;;;5075256;28;20699;-84
2023/03/07 11:50:29;;;;;;;20.42;12.38;;;10.60;99.90;;;;;;5077492;28;20268;-85
2023/03/07 11:53:16;;;;;;;15.82;10.63;;;10.60;99.90;;;;;;5081054;28;20200;-81
2023/03/07 11:55:58;;;;;;;13.65;9.43;;;10.60;99.90;;;;;;5076102;28;20468;-88
2023/03/07 11:58:52;;;;;;;16.90;11.25;;;10.50;99.90;;;;;;5076874;28;20209;-87
2023/03/07 12:01:17;;;;;;;15.82;11.70;;;10.50;99.90;;;;;;5076294;28;20840;-86
2023/03/07 12:03:55;;;;;;;13.07;10.60;;;10.50;99.90;;;;;;5085615;28;20208;-82
2023/03/07 12:06:21;;;;;;;14.00;10.57;;;10.60;99.90;;;;;;5106060;27;20226;-82
2023/03/07 12:09:00;;;;;;;14.07;8.93;;;10.60;99.90;;;;;;5080337;28;20598;-81
2023/03/07 12:11:48;;;;;;;12.32;9.00;;;10.70;99.90;;;;;;5085301;28;20215;-86
2023/03/07 12:14:32;;;;;;;11.68;8.13;;;10.70;99.90;;;;;;5081878;28;20233;-86
2023/03/07 12:17:29;;;;;;;14.88;9.57;;;10.70;99.90;;;;;;5077734;28;20189;-85
2023/03/07 12:20:17;;;;;;;13.23;8.85;;;10.70;99.90;;;;;;5081148;28;20191;-86
2023/03/07 12:23:00;;;;;;;18.75;9.52;;;10.70;99.90;;;;;;5076551;28;20199;-83
2023/03/07 12:25:38;;;;;;;12.27;8.18;;;10.80;99.90;;;;;;5076658;28;20200;-85
2023/03/07 12:28:15;;;;;;;15.55;9.48;;;11.00;99.90;;;;;;5080942;28;20212;-84
2023/03/07 12:30:44;;;;;;;14.98;9.20;;;11.10;99.90;;;;;;5081537;28;20172;-81
2023/03/07 12:33:20;;;;;;;12.60;8.27;;;11.00;99.90;;;;;;5089538;28;20213;-84
2023/03/07 12:35:50;;;;;;;13.10;9.55;;;10.90;99.90;;;;;;5086627;28;20638;-86
2023/03/07 12:38:24;;;;;;;15.85;10.10;;;10.90;99.90;;;;;;5084519;28;20294;-82
2023/03/07 12:41:21;;;;;;;13.57;9.63;;;10.80;99.90;;;;;;5077049;28;20650;-83
2023/03/07 12:43:52;;;;;;;13.30;10.23;;;10.80;99.90;;;;;;5057116;28;20236;-84
2023/03/07 12:46:26;;;;;;;13.45;9.60;;;10.90;99.90;;;;;;5084741;28;20701;-86